Time;durP1;ratioP1;P1;durP2;ratioP2;P2;SDS_P1;SDS_P2;PMS_P1;PMS_P2;Temp;Humidity;BMP_temperature;BMP_pressure;BME280_temperature;BME280_humidity;BME280_pressure;Samples;Min_cycle;Max_cycle;Signal;HPM_P1;HPM_P2
2023/03/14 00:01:32;;;;;;;14.87;7.23;;;;;;;3.81;55.88;95401.69;4943976;28;20228;-74
2023/03/14 00:03:59;;;;;;;15.03;7.37;;;;;;;3.74;56.70;95393.69;4949115;28;20248;-74
2023/03/14 00:06:24;;;;;;;16.53;6.80;;;;;;;3.75;56.35;95387.53;4928852;28;20224;-74
2023/03/14 00:08:51;;;;;;;16.97;7.23;;;;;;;3.80;56.98;95380.16;4946684;28;20241;-74
2023/03/14 00:11:18;;;;;;;16.20;8.00;;;;;;;3.82;57.23;95375.63;4915244;28;20233;-72
2023/03/14 00:13:47;;;;;;;23.43;11.47;;;;;;;3.80;56.72;95374.97;4925989;28;20739;-74
2023/03/14 00:16:13;;;;;;;31.53;14.40;;;;;;;3.69;57.16;95372.63;4931532;28;20236;-75
2023/03/14 00:18:38;;;;;;;25.10;12.57;;;;;;;3.66;57.82;95370.31;4946240;28;20859;-74
2023/03/14 00:21:04;;;;;;;19.97;9.93;;;;;;;3.59;57.29;95371.84;4932014;28;20237;-74
2023/03/14 00:23:30;;;;;;;17.97;9.27;;;;;;;3.58;57.43;95365.06;4928498;28;20232;-74
2023/03/14 00:26:16;;;;;;;19.20;9.93;;;;;;;3.54;58.23;95355.94;4946419;28;20239;-74
2023/03/14 00:28:41;;;;;;;18.07;9.30;;;;;;;3.62;57.88;95355.22;4949195;28;20238;-74
2023/03/14 00:31:08;;;;;;;19.90;8.00;;;;;;;3.62;57.55;95348.28;4923070;28;20236;-73
2023/03/14 00:33:33;;;;;;;15.43;7.73;;;;;;;3.56;58.53;95350.66;4960605;28;20229;-74
2023/03/14 00:36:01;;;;;;;12.97;6.73;;;;;;;3.60;58.57;95341.63;4926313;28;20236;-74
2023/03/14 00:38:26;;;;;;;15.10;6.67;;;;;;;3.66;58.49;95346.19;4945840;28;20954;-74
2023/03/14 00:40:52;;;;;;;13.47;6.53;;;;;;;3.46;58.37;95344.72;4948886;28;20259;-75
2023/03/14 00:43:18;;;;;;;13.03;6.30;;;;;;;3.38;59.03;95335.09;4948642;28;20228;-74
2023/03/14 00:45:43;;;;;;;11.63;5.80;;;;;;;3.39;59.77;95339.31;4964544;28;20339;-73
2023/03/14 00:48:10;;;;;;;11.73;5.80;;;;;;;3.39;59.67;95334.16;4915389;28;20856;-73
2023/03/14 00:50:36;;;;;;;9.67;5.60;;;;;;;3.28;59.74;95331.75;4923006;28;20707;-74
2023/03/14 00:53:01;;;;;;;12.70;6.20;;;;;;;3.36;59.66;95330.06;4935336;28;20239;-73
2023/03/14 00:55:26;;;;;;;9.57;5.60;;;;;;;3.32;59.42;95328.72;4964247;28;20875;-73
2023/03/14 00:57:52;;;;;;;11.33;5.80;;;;;;;3.31;60.16;95331.47;4934250;28;20588;-74
2023/03/14 01:00:18;;;;;;;12.30;5.87;;;;;;;3.40;59.75;95328.00;4944011;28;20235;-74
2023/03/14 01:02:43;;;;;;;12.50;5.50;;;;;;;3.37;59.42;95329.09;4927579;28;20299;-74
2023/03/14 01:05:10;;;;;;;13.03;5.27;;;;;;;3.36;59.87;95324.06;4963122;28;20232;-74
2023/03/14 01:07:36;;;;;;;13.27;5.50;;;;;;;3.23;60.20;95321.84;4925964;28;20232;-74
2023/03/14 01:10:02;;;;;;;12.20;5.83;;;;;;;3.18;60.70;95318.88;4928974;28;20224;-74
2023/03/14 01:12:28;;;;;;;11.00;5.37;;;;;;;3.26;61.53;95315.56;4927750;28;20281;-72
2023/03/14 01:14:53;;;;;;;11.17;5.47;;;;;;;3.31;61.34;95315.94;4968211;28;20310;-74
2023/03/14 01:17:18;;;;;;;10.07;5.33;;;;;;;3.33;61.38;95314.84;4952815;28;20237;-74
2023/03/14 01:19:44;;;;;;;9.53;5.37;;;;;;;3.36;61.83;95304.22;4935018;28;20232;-74
2023/03/14 01:22:09;;;;;;;10.57;5.47;;;;;;;3.36;62.00;95304.22;4961466;28;20264;-74
2023/03/14 01:24:36;;;;;;;8.47;5.00;;;;;;;3.44;62.18;95302.66;4944048;28;20260;-73
2023/03/14 01:27:02;;;;;;;9.47;5.10;;;;;;;3.40;61.97;95299.53;4946576;28;20224;-74
2023/03/14 01:29:27;;;;;;;10.10;5.50;;;;;;;3.38;61.67;95297.09;4944363;28;20347;-74
2023/03/14 01:31:53;;;;;;;11.23;5.77;;;;;;;3.33;61.11;95293.31;4924698;28;20695;-74
2023/03/14 01:34:18;;;;;;;14.17;5.83;;;;;;;3.40;60.69;95296.94;4943380;28;20661;-74
2023/03/14 01:36:44;;;;;;;15.93;5.93;;;;;;;3.44;61.44;95298.28;4926715;28;20239;-74
2023/03/14 01:39:09;;;;;;;13.87;6.40;;;;;;;3.45;61.65;95289.56;4929404;28;20706;-74
2023/03/14 01:41:35;;;;;;;14.93;6.60;;;;;;;3.47;61.26;95285.06;4942108;28;20237;-73
2023/03/14 01:44:00;;;;;;;18.20;7.20;;;;;;;3.44;62.50;95279.38;4979064;28;20231;-74
2023/03/14 01:46:39;;;;;;;15.93;7.40;;;;;;;3.46;62.39;95280.84;4956567;28;20233;-74
2023/03/14 01:49:33;;;;;;;14.63;6.90;;;;;;;3.40;63.84;95279.66;4930631;28;20221;-73
2023/03/14 01:52:12;;;;;;;12.03;6.37;;;;;;;3.30;64.77;95276.31;4944895;28;20241;-74
2023/03/14 01:54:44;;;;;;;12.90;6.10;;;;;;;3.40;64.52;95277.06;4935792;28;20290;-74
2023/03/14 01:57:19;;;;;;;12.73;6.20;;;;;;;3.38;63.82;95273.00;4967273;28;20239;-74
2023/03/14 02:00:14;;;;;;;13.30;6.57;;;;;;;3.31;64.09;95270.19;4963203;28;20238;-73
2023/03/14 02:02:46;;;;;;;13.03;5.97;;;;;;;3.27;65.44;95268.06;4952118;28;20309;-74
2023/03/14 02:05:13;;;;;;;11.70;6.07;;;;;;;3.26;64.70;95276.75;4919200;28;20292;-74
2023/03/14 02:07:47;;;;;;;14.93;6.70;;;;;;;3.17;64.18;95273.28;4931116;28;20244;-74
2023/03/14 02:10:12;;;;;;;14.90;7.00;;;;;;;3.11;64.58;95268.69;4957797;28;20237;-74
2023/03/14 02:12:38;;;;;;;14.33;6.90;;;;;;;3.15;64.62;95264.06;4948761;28;20609;-74
2023/03/14 02:15:04;;;;;;;18.53;7.77;;;;;;;3.03;64.35;95266.03;4930807;28;20267;-74
2023/03/14 02:17:30;;;;;;;14.93;7.30;;;;;;;3.00;65.75;95268.09;4958814;28;20272;-74
2023/03/14 02:19:55;;;;;;;18.33;7.87;;;;;;;2.81;66.17;95260.44;4943244;28;20239;-74
2023/03/14 02:22:20;;;;;;;23.73;10.97;;;;;;;2.54;67.17;95256.88;4950527;28;20242;-74
2023/03/14 02:25:14;;;;;;;18.87;9.03;;;;;;;2.58;67.59;95254.84;4962718;28;20257;-74
2023/03/14 02:27:39;;;;;;;14.33;6.70;;;;;;;2.56;67.96;95259.31;4946966;28;20242;-74
2023/03/14 02:30:08;;;;;;;19.30;6.73;;;;;;;2.50;69.15;95259.91;4914322;28;20630;-74
2023/03/14 02:32:34;;;;;;;13.77;6.60;;;;;;;2.42;68.92;95259.78;4930305;28;20244;-75
2023/03/14 02:35:01;;;;;;;11.47;6.47;;;;;;;2.43;68.79;95262.25;4949366;28;20308;-74
2023/03/14 02:37:32;;;;;;;14.57;6.70;;;;;;;2.56;68.90;95257.56;4914706;28;20241;-75
2023/03/14 02:39:58;;;;;;;15.70;7.00;;;;;;;2.66;68.67;95260.91;4949818;28;20325;-74
2023/03/14 02:42:23;;;;;;;14.37;7.10;;;;;;;2.56;68.16;95283.38;4935964;28;20748;-74
2023/03/14 02:44:51;;;;;;;15.43;7.07;;;;;;;2.53;68.55;95272.53;4946964;28;20228;-75
2023/03/14 02:47:17;;;;;;;15.00;7.33;;;;;;;2.50;68.73;95276.22;4975899;28;20321;-75
2023/03/14 02:49:42;;;;;;;17.97;7.87;;;;;;;2.69;67.19;95268.38;4963791;28;20233;-74
2023/03/14 02:52:07;;;;;;;17.67;7.80;;;;;;;2.52;67.63;95271.72;4929808;28;20914;-75
2023/03/14 02:54:33;;;;;;;16.73;7.53;;;;;;;2.66;67.63;95273.84;4913920;28;20224;-74
2023/03/14 02:56:58;;;;;;;16.23;7.90;;;;;;;2.72;66.72;95268.06;4948767;28;20247;-74
2023/03/14 02:59:24;;;;;;;16.70;7.80;;;;;;;2.62;67.78;95280.25;4962047;28;20236;-74
2023/03/14 03:01:49;;;;;;;19.90;7.57;;;;;;;2.41;67.50;95282.19;4950645;28;20252;-74
2023/03/14 03:04:15;;;;;;;15.10;7.80;;;;;;;2.38;67.43;95273.94;4923474;28;20225;-74
2023/03/14 03:06:40;;;;;;;19.20;7.70;;;;;;;2.34;68.19;95275.97;4918313;28;20267;-74
2023/03/14 03:09:05;;;;;;;18.23;8.37;;;;;;;2.36;68.10;95279.25;4980359;28;20222;-74
2023/03/14 03:11:31;;;;;;;19.63;9.07;;;;;;;2.45;67.57;95278.41;4949075;28;20232;-74
2023/03/14 03:13:57;;;;;;;22.73;9.20;;;;;;;2.36;68.09;95274.09;4943797;28;20225;-74
2023/03/14 03:16:22;;;;;;;20.43;8.60;;;;;;;2.50;67.24;95270.22;4928480;28;20672;-74
2023/03/14 03:18:48;;;;;;;19.63;9.07;;;;;;;2.33;68.02;95271.78;4948387;28;20255;-74
2023/03/14 03:21:13;;;;;;;20.53;9.27;;;;;;;2.20;68.64;95273.06;4944245;28;20292;-73
2023/03/14 03:23:38;;;;;;;20.83;9.17;;;;;;;2.15;68.65;95273.44;4925671;28;20237;-74
2023/03/14 03:26:04;;;;;;;19.20;8.97;;;;;;;2.29;68.19;95270.44;4959555;28;20225;-73
2023/03/14 03:28:30;;;;;;;20.73;9.50;;;;;;;2.30;67.95;95272.06;4918968;28;20228;-73
2023/03/14 03:30:55;;;;;;;22.33;9.30;;;;;;;2.37;68.09;95273.13;4941996;28;20235;-73
2023/03/14 03:33:22;;;;;;;23.80;10.03;;;;;;;2.25;69.17;95269.06;4960371;28;20248;-73
2023/03/14 03:35:48;;;;;;;20.53;9.30;;;;;;;2.33;68.99;95265.81;4973290;28;20963;-73
2023/03/14 03:38:14;;;;;;;20.50;9.53;;;;;;;2.33;68.94;95270.97;4935975;28;20228;-73
2023/03/14 03:40:40;;;;;;;22.93;9.60;;;;;;;2.20;69.48;95265.31;4964312;28;20323;-73
2023/03/14 03:43:05;;;;;;;21.47;9.90;;;;;;;2.14;70.04;95269.25;4962650;28;20256;-74
2023/03/14 03:45:30;;;;;;;22.50;9.80;;;;;;;2.12;69.71;95267.75;4973032;28;20233;-73
2023/03/14 03:47:56;;;;;;;22.80;9.90;;;;;;;2.09;70.51;95274.03;4965253;28;20950;-72
2023/03/14 03:50:21;;;;;;;27.93;10.77;;;;;;;2.11;70.69;95272.09;4928900;28;20979;-74
2023/03/14 03:52:47;;;;;;;26.07;10.93;;;;;;;2.11;71.22;95279.84;4970158;28;20248;-74
2023/03/14 03:55:12;;;;;;;23.00;10.87;;;;;;;2.15;70.96;95282.97;4937321;28;20239;-74
2023/03/14 03:57:38;;;;;;;27.07;11.70;;;;;;;2.02;71.46;95291.03;4939291;28;20266;-73
2023/03/14 04:00:05;;;;;;;27.60;12.67;;;;;;;1.69;72.34;95281.16;4933012;28;20228;-74
2023/03/14 04:02:30;;;;;;;26.90;12.03;;;;;;;2.02;71.79;95286.69;4943441;28;20239;-74
2023/03/14 04:04:56;;;;;;;27.57;11.93;;;;;;;2.09;72.44;95281.75;4937313;28;20217;-74
2023/03/14 04:07:21;;;;;;;23.87;10.67;;;;;;;2.12;72.63;95278.91;4931445;28;20229;-74
2023/03/14 04:09:47;;;;;;;23.57;10.17;;;;;;;2.12;72.08;95278.91;4959681;28;20809;-73
2023/03/14 04:12:13;;;;;;;22.60;9.80;;;;;;;2.04;72.10;95278.78;4947791;28;20253;-74
2023/03/14 04:14:40;;;;;;;22.67;9.77;;;;;;;1.90;72.32;95281.78;4963034;28;20287;-74
2023/03/14 04:17:06;;;;;;;25.30;10.30;;;;;;;1.72;73.58;95273.13;4931185;28;20280;-74
2023/03/14 04:19:31;;;;;;;20.20;9.60;;;;;;;1.72;73.48;95271.34;4959305;28;20235;-74
2023/03/14 04:21:57;;;;;;;24.57;10.50;;;;;;;1.82;72.60;95261.03;4933354;28;20287;-75
2023/03/14 04:24:22;;;;;;;24.40;10.07;;;;;;;1.85;73.05;95266.72;4929429;28;20295;-74
2023/03/14 04:26:48;;;;;;;22.90;10.03;;;;;;;1.78;73.20;95254.50;4964283;28;20233;-73
2023/03/14 04:29:13;;;;;;;21.80;10.03;;;;;;;1.71;73.88;95248.28;4931063;28;20236;-74
2023/03/14 04:31:39;;;;;;;22.30;9.87;;;;;;;1.77;74.74;95260.63;4958556;28;20674;-74
2023/03/14 04:34:04;;;;;;;20.47;9.60;;;;;;;1.59;74.57;95249.38;4941550;28;20736;-75
2023/03/14 04:36:30;;;;;;;22.83;9.73;;;;;;;1.50;74.63;95255.34;4940583;28;20236;-76
2023/03/14 04:38:55;;;;;;;21.20;10.03;;;;;;;1.45;75.27;95257.53;4924347;28;20917;-75
2023/03/14 04:41:21;;;;;;;21.87;10.03;;;;;;;1.50;75.34;95242.47;4912590;28;20788;-74
2023/03/14 04:43:46;;;;;;;22.50;10.27;;;;;;;1.51;75.26;95241.50;4913084;28;20228;-75
2023/03/14 04:46:14;;;;;;;23.13;10.10;;;;;;;1.55;75.59;95235.13;4960362;28;20248;-75
2023/03/14 04:48:40;;;;;;;24.13;9.70;;;;;;;1.54;75.69;95233.50;4905795;28;20240;-73
2023/03/14 04:51:06;;;;;;;23.33;10.10;;;;;;;1.46;75.35;95234.16;4942600;28;20656;-73
2023/03/14 04:53:31;;;;;;;22.67;9.97;;;;;;;1.46;75.96;95233.38;4968764;28;20236;-74
2023/03/14 04:55:57;;;;;;;25.60;10.60;;;;;;;1.42;76.28;95227.66;4941605;28;20240;-74
2023/03/14 04:58:23;;;;;;;24.70;10.33;;;;;;;1.67;75.36;95224.50;4936362;28;20232;-73
2023/03/14 05:00:48;;;;;;;20.97;9.90;;;;;;;1.80;75.34;95232.78;4928168;28;20240;-75
2023/03/14 05:03:17;;;;;;;28.10;9.97;;;;;;;1.88;75.10;95225.19;4928522;28;20226;-75
2023/03/14 05:05:43;;;;;;;27.50;10.13;;;;;;;1.90;75.15;95232.78;4943719;28;20244;-75
2023/03/14 05:08:08;;;;;;;23.83;10.30;;;;;;;1.86;75.21;95231.44;4947586;28;20232;-74
2023/03/14 05:10:34;;;;;;;26.60;10.83;;;;;;;1.67;75.22;95231.47;4930679;28;20283;-73
2023/03/14 05:12:59;;;;;;;33.37;12.83;;;;;;;1.70;74.79;95226.00;4967482;28;20780;-74
2023/03/14 05:15:25;;;;;;;33.33;13.43;;;;;;;1.80;74.66;95224.22;4984276;28;20311;-73
2023/03/14 05:17:50;;;;;;;33.23;14.13;;;;;;;1.82;74.26;95225.72;4939940;28;20221;-73
2023/03/14 05:20:16;;;;;;;30.33;14.13;;;;;;;1.92;74.59;95230.84;4947421;28;20227;-74
2023/03/14 05:22:41;;;;;;;36.53;15.37;;;;;;;2.07;74.42;95232.06;4931932;28;20239;-74
2023/03/14 05:25:07;;;;;;;31.80;14.30;;;;;;;2.21;71.67;95235.94;4931918;28;20236;-75
2023/03/14 05:27:33;;;;;;;33.27;14.60;;;;;;;2.39;71.88;95222.13;4948818;28;20232;-74
2023/03/14 05:29:59;;;;;;;38.87;14.70;;;;;;;2.41;70.84;95217.63;4965015;28;20892;-73
2023/03/14 05:32:24;;;;;;;32.77;14.60;;;;;;;2.53;70.23;95221.66;4978094;28;20226;-73
2023/03/14 05:34:49;;;;;;;39.60;14.90;;;;;;;2.65;69.66;95222.31;4934086;28;20291;-74
2023/03/14 05:37:15;;;;;;;35.43;14.87;;;;;;;2.75;70.08;95227.44;4982887;28;20680;-73
2023/03/14 05:39:40;;;;;;;38.23;16.03;;;;;;;3.19;68.50;95229.19;4938037;28;20228;-73
2023/03/14 05:42:06;;;;;;;35.07;14.87;;;;;;;3.51;67.94;95228.66;4922417;28;20246;-74
2023/03/14 05:44:31;;;;;;;37.37;14.83;;;;;;;3.36;69.00;95228.38;4945744;28;20228;-74
2023/03/14 05:46:57;;;;;;;38.73;16.03;;;;;;;4.01;66.58;95233.06;4944510;28;20272;-74
2023/03/14 05:49:22;;;;;;;36.77;16.23;;;;;;;3.81;66.28;95229.06;4930643;28;20631;-74
2023/03/14 05:51:48;;;;;;;39.00;17.13;;;;;;;3.69;67.52;95232.84;4939877;28;20233;-74
2023/03/14 05:54:13;;;;;;;46.10;17.63;;;;;;;3.75;66.04;95234.03;4930197;28;20240;-73
2023/03/14 05:56:39;;;;;;;36.33;17.23;;;;;;;3.82;66.99;95225.50;4934251;28;20663;-73
2023/03/14 05:59:04;;;;;;;38.07;17.73;;;;;;;3.93;68.44;95225.28;4926999;28;20792;-74
2023/03/14 06:01:30;;;;;;;39.80;18.67;;;;;;;3.86;68.23;95221.66;4917793;28;20242;-74
2023/03/14 06:03:55;;;;;;;42.50;18.30;;;;;;;3.86;67.25;95229.44;4915574;28;20324;-74
2023/03/14 06:06:21;;;;;;;39.80;18.50;;;;;;;4.03;66.22;95222.59;4943609;28;20241;-73
2023/03/14 06:08:46;;;;;;;41.53;17.50;;;;;;;4.15;65.76;95225.72;4927632;28;20746;-74
2023/03/14 06:11:12;;;;;;;43.40;17.67;;;;;;;4.14;66.62;95224.91;4922008;28;20229;-75
2023/03/14 06:13:38;;;;;;;44.23;17.67;;;;;;;4.16;66.61;95224.75;4946470;28;20241;-75
2023/03/14 06:16:04;;;;;;;40.80;17.00;;;;;;;4.19;65.05;95208.91;4952435;28;20248;-74
2023/03/14 06:18:30;;;;;;;40.57;17.17;;;;;;;3.93;65.64;95222.69;4945437;28;20239;-74
2023/03/14 06:20:56;;;;;;;40.83;17.53;;;;;;;4.11;65.11;95221.84;4968627;28;20282;-75
2023/03/14 06:23:22;;;;;;;39.30;16.87;;;;;;;4.05;65.50;95228.41;4967182;28;20248;-74
2023/03/14 06:25:47;;;;;;;41.13;17.30;;;;;;;4.15;66.57;95234.31;4956379;28;20237;-73
2023/03/14 06:28:13;;;;;;;42.87;17.03;;;;;;;4.24;66.86;95237.75;4952491;28;20804;-73
2023/03/14 06:30:38;;;;;;;42.83;17.37;;;;;;;4.03;65.64;95231.19;4964945;28;22222;-74
2023/03/14 06:33:04;;;;;;;40.20;17.03;;;;;;;4.19;64.73;95227.84;4939979;28;20233;-74
2023/03/14 06:35:29;;;;;;;39.80;17.60;;;;;;;4.37;66.01;95233.78;4985587;28;20316;-73
2023/03/14 06:37:55;;;;;;;38.47;17.07;;;;;;;4.45;63.36;95225.25;4947631;28;20241;-73
2023/03/14 06:40:21;;;;;;;37.47;17.07;;;;;;;4.16;63.39;95220.38;4962810;28;20237;-74
2023/03/14 06:42:50;;;;;;;38.23;17.80;;;;;;;4.54;63.31;95224.31;4943005;28;20668;-73
2023/03/14 06:45:16;;;;;;;43.53;17.67;;;;;;;5.09;62.55;95222.88;4931687;28;20227;-75
2023/03/14 06:47:42;;;;;;;37.83;16.97;;;;;;;5.32;61.35;95216.13;4926489;28;20229;-74
2023/03/14 06:50:07;;;;;;;42.07;18.17;;;;;;;5.23;61.08;95219.66;4943650;28;20243;-74
2023/03/14 06:52:33;;;;;;;47.80;17.60;;;;;;;5.34;59.52;95211.59;4974133;28;20260;-73
2023/03/14 06:54:59;;;;;;;36.63;17.80;;;;;;;5.29;60.45;95198.28;4942396;28;20272;-75
2023/03/14 06:57:25;;;;;;;40.53;17.93;;;;;;;5.35;60.51;95199.41;4943660;28;20241;-73
2023/03/14 06:59:50;;;;;;;46.83;19.00;;;;;;;5.31;60.42;95203.31;4959396;28;20251;-73
2023/03/14 07:02:16;;;;;;;46.57;19.07;;;;;;;5.54;59.16;95198.31;4913602;28;20259;-73
2023/03/14 07:04:41;;;;;;;45.57;18.97;;;;;;;5.82;58.29;95191.81;4957677;28;20315;-74
2023/03/14 07:07:06;;;;;;;42.17;19.13;;;;;;;5.74;58.62;95184.00;4945300;28;20718;-75
2023/03/14 07:09:33;;;;;;;43.33;18.40;;;;;;;6.01;57.43;95188.91;4948684;28;21049;-74
2023/03/14 07:11:58;;;;;;;41.37;17.93;;;;;;;6.25;56.76;95183.66;4953718;28;20345;-73
2023/03/14 07:14:24;;;;;;;37.60;17.20;;;;;;;6.42;56.05;95180.03;4943803;28;20345;-73
2023/03/14 07:16:50;;;;;;;39.23;16.90;;;;;;;6.71;54.96;95184.63;4944722;28;20244;-74
2023/03/14 07:19:15;;;;;;;23.50;12.23;;;;;;;6.41;53.85;95186.19;4930216;28;20848;-74
2023/03/14 07:21:41;;;;;;;26.73;11.70;;;;;;;6.34;52.82;95187.03;4944243;28;20240;-72
2023/03/14 07:24:06;;;;;;;27.50;11.83;;;;;;;6.29;53.85;95187.53;4920604;28;20234;-74
2023/03/14 07:26:32;;;;;;;27.07;11.80;;;;;;;6.61;53.01;95184.84;4933585;28;21073;-74
2023/03/14 07:28:57;;;;;;;28.13;12.77;;;;;;;6.81;52.71;95187.03;4947548;28;20270;-74
2023/03/14 07:31:23;;;;;;;27.20;13.60;;;;;;;7.14;52.48;95181.44;4964486;28;20269;-75
2023/03/14 07:33:48;;;;;;;28.00;13.73;;;;;;;6.87;52.40;95178.53;4962470;28;20233;-74
2023/03/14 07:36:14;;;;;;;27.63;13.30;;;;;;;6.90;52.76;95173.00;4932684;28;20803;-74
2023/03/14 07:38:39;;;;;;;33.43;14.00;;;;;;;7.00;52.69;95174.38;4949467;28;21236;-73
2023/03/14 07:41:05;;;;;;;28.13;13.87;;;;;;;6.65;53.21;95167.91;4944131;28;20228;-74
2023/03/14 07:43:31;;;;;;;29.33;14.47;;;;;;;6.85;51.56;95167.50;4943414;28;20237;-74
2023/03/14 07:45:57;;;;;;;36.33;15.27;;;;;;;7.00;53.56;95163.97;4933412;28;20813;-72
2023/03/14 07:48:24;;;;;;;31.07;13.87;;;;;;;7.00;52.20;95163.19;4964730;28;20240;-73
2023/03/14 07:50:53;;;;;;;27.63;12.80;;;;;;;6.71;52.26;95151.59;4919282;28;20286;-74
2023/03/14 07:53:18;;;;;;;24.03;12.50;;;;;;;6.80;51.80;95155.00;4948524;28;20241;-74
2023/03/14 07:55:44;;;;;;;28.40;12.30;;;;;;;7.02;52.77;95153.41;4961792;28;20303;-74
2023/03/14 07:58:09;;;;;;;26.17;11.93;;;;;;;7.03;50.75;95157.63;4933205;28;20244;-75
2023/03/14 08:00:35;;;;;;;24.13;11.53;;;;;;;7.03;51.34;95153.22;4960945;28;20750;-74
2023/03/14 08:03:00;;;;;;;23.33;11.60;;;;;;;7.08;51.98;95155.31;4934899;28;20236;-74
2023/03/14 08:05:26;;;;;;;21.83;10.93;;;;;;;7.04;52.41;95152.25;4960228;28;20238;-74
2023/03/14 08:07:51;;;;;;;20.70;10.90;;;;;;;7.32;51.47;95155.97;4945846;28;20773;-73
2023/03/14 08:10:23;;;;;;;22.40;11.37;;;;;;;6.81;51.70;95150.63;4930359;28;20238;-73
2023/03/14 08:12:50;;;;;;;22.73;10.87;;;;;;;7.27;51.49;95150.47;4919472;28;20227;-74
2023/03/14 08:15:15;;;;;;;22.40;10.67;;;;;;;7.36;51.00;95152.03;4948327;28;20225;-75
2023/03/14 08:17:41;;;;;;;24.90;10.30;;;;;;;7.08;50.93;95152.72;4941651;28;20239;-74
2023/03/14 08:20:07;;;;;;;18.40;9.80;;;;;;;6.92;49.95;95147.63;4942469;28;20229;-75
2023/03/14 08:22:33;;;;;;;21.00;9.50;;;;;;;7.07;50.07;95153.72;4931671;28;20238;-73
2023/03/14 08:24:59;;;;;;;19.47;9.97;;;;;;;6.88;50.14;95144.53;4942176;28;20243;-73
2023/03/14 08:27:24;;;;;;;19.53;10.50;;;;;;;6.85;50.87;95141.47;4925498;28;20225;-73
2023/03/14 08:29:49;;;;;;;20.93;10.30;;;;;;;7.09;50.08;95136.13;4943044;28;20317;-74
2023/03/14 08:32:15;;;;;;;18.30;10.00;;;;;;;7.35;49.81;95145.22;4958054;28;20240;-73
2023/03/14 08:34:40;;;;;;;16.57;9.43;;;;;;;7.36;49.52;95139.00;4962336;28;20236;-74
2023/03/14 08:37:06;;;;;;;18.40;9.27;;;;;;;7.58;49.29;95136.56;4945851;28;20232;-75
2023/03/14 08:39:31;;;;;;;19.77;9.40;;;;;;;7.79;48.42;95132.28;4930723;28;20617;-74
2023/03/14 08:41:57;;;;;;;18.50;9.70;;;;;;;7.91;48.64;95120.47;4947218;28;20713;-73
2023/03/14 08:44:22;;;;;;;23.47;9.10;;;;;;;7.79;47.63;95134.09;4942777;28;20241;-74
2023/03/14 08:46:47;;;;;;;17.40;8.60;;;;;;;7.76;48.58;95114.41;4927482;28;20236;-73
2023/03/14 08:49:14;;;;;;;20.37;8.80;;;;;;;7.99;48.96;95115.19;4941620;28;20297;-73
2023/03/14 08:51:40;;;;;;;15.30;8.00;;;;;;;7.59;47.47;95115.56;4930821;28;20232;-73
2023/03/14 08:54:05;;;;;;;16.83;8.10;;;;;;;7.97;48.20;95101.53;4933582;28;20291;-73
2023/03/14 08:56:31;;;;;;;17.47;7.93;;;;;;;8.17;48.79;95099.16;4976637;28;20225;-73
2023/03/14 08:58:56;;;;;;;16.27;7.47;;;;;;;8.30;46.94;95099.38;4950342;28;20241;-73
2023/03/14 09:01:23;;;;;;;15.43;7.53;;;;;;;8.47;46.41;95089.56;4964558;28;20232;-74
2023/03/14 09:03:50;;;;;;;14.93;8.20;;;;;;;8.52;46.65;95090.63;4926159;28;20240;-73
2023/03/14 09:06:19;;;;;;;16.83;8.30;;;;;;;8.54;45.52;95085.22;4940039;28;20248;-74
2023/03/14 09:08:45;;;;;;;15.77;7.80;;;;;;;8.68;44.77;95079.16;4944162;28;20288;-73
2023/03/14 09:11:10;;;;;;;14.53;7.43;;;;;;;8.86;44.72;95078.78;4940255;28;20723;-72
2023/03/14 09:13:36;;;;;;;12.87;7.47;;;;;;;9.11;44.19;95066.97;4914795;28;20319;-73
2023/03/14 09:16:02;;;;;;;14.30;7.53;;;;;;;9.27;43.79;95059.69;4941513;28;20291;-74
2023/03/14 09:18:27;;;;;;;10.77;6.70;;;;;;;9.26;42.42;95052.88;4926459;28;20236;-75
2023/03/14 09:20:53;;;;;;;13.70;7.17;;;;;;;9.38;43.11;95051.34;4919887;28;20935;-74
2023/03/14 09:23:18;;;;;;;14.70;7.63;;;;;;;9.51;44.33;95055.84;4928820;28;20244;-74
2023/03/14 09:25:43;;;;;;;14.53;7.37;;;;;;;9.18;42.71;95045.16;4962934;28;20635;-74
2023/03/14 09:28:09;;;;;;;15.47;7.17;;;;;;;9.34;42.78;95036.22;4914413;28;20317;-74
2023/03/14 09:30:34;;;;;;;15.37;7.23;;;;;;;9.75;43.79;95041.56;4910104;28;20915;-74
2023/03/14 09:33:00;;;;;;;17.60;7.50;;;;;;;9.96;42.02;95036.25;4934647;28;20249;-74
2023/03/14 09:35:25;;;;;;;16.07;7.40;;;;;;;9.90;42.73;95034.41;4919994;28;20242;-74
2023/03/14 09:37:51;;;;;;;15.67;7.47;;;;;;;10.05;43.40;95024.66;4898493;28;20250;-73
2023/03/14 09:40:18;;;;;;;17.20;7.50;;;;;;;10.04;42.26;95021.22;4919392;28;20248;-74
2023/03/14 09:42:43;;;;;;;17.03;7.50;;;;;;;10.36;41.64;95009.34;4950460;28;20243;-73
2023/03/14 09:45:15;;;;;;;14.07;6.83;;;;;;;10.44;40.19;95009.16;4933447;28;20339;-70
2023/03/14 09:47:41;;;;;;;13.47;6.73;;;;;;;10.64;39.78;95010.03;4907046;28;20794;-74
2023/03/14 09:50:14;;;;;;;13.70;6.40;;;;;;;10.60;39.71;94993.09;4926725;28;20236;-73
2023/03/14 09:52:39;;;;;;;11.80;6.43;;;;;;;10.76;37.82;94989.31;4951544;28;20237;-70
2023/03/14 09:55:19;;;;;;;12.60;6.87;;;;;;;10.91;38.43;94986.50;4962130;28;20229;-71
2023/03/14 09:57:45;;;;;;;12.97;7.30;;;;;;;11.17;38.92;94989.16;4954375;28;20878;-74
2023/03/14 10:00:18;;;;;;;15.07;6.97;;;;;;;11.09;39.46;94984.91;4921514;28;20241;-73
2023/03/14 10:02:53;;;;;;;15.40;7.63;;;;;;;11.23;40.64;94975.25;4947405;28;20299;-74
2023/03/14 10:05:21;;;;;;;17.67;8.20;;;;;;;11.01;39.81;94981.69;4961046;28;20701;-73
2023/03/14 10:07:46;;;;;;;16.13;7.80;;;;;;;11.25;38.89;94965.34;4947189;28;20996;-74
2023/03/14 10:10:35;;;;;;;17.23;7.90;;;;;;;11.31;39.46;94969.81;4946820;28;20233;-74
2023/03/14 10:13:16;;;;;;;20.07;8.07;;;;;;;11.10;40.06;94962.16;4959408;28;20237;-73
2023/03/14 10:15:41;;;;;;;20.83;8.67;;;;;;;11.10;40.17;94955.09;4978675;28;20328;-73
2023/03/14 10:18:13;;;;;;;16.93;8.20;;;;;;;11.18;39.96;94956.69;4939804;28;20975;-74
2023/03/14 10:20:43;;;;;;;19.70;8.47;;;;;;;11.31;40.19;94943.59;4936333;28;20240;-74
2023/03/14 10:23:12;;;;;;;16.00;8.13;;;;;;;11.45;40.95;94937.34;4950974;28;20229;-75
2023/03/14 10:25:39;;;;;;;20.33;7.90;;;;;;;11.46;40.61;94929.25;4953885;28;20617;-73
2023/03/14 10:28:04;;;;;;;19.63;7.43;;;;;;;11.97;40.94;94924.13;4944954;28;20223;-73
2023/03/14 10:30:37;;;;;;;13.00;7.23;;;;;;;11.85;40.39;94912.66;4932879;28;20308;-73
2023/03/14 10:33:33;;;;;;;11.47;6.57;;;;;;;11.90;40.29;94912.84;4937168;28;20613;-74
2023/03/14 10:36:03;;;;;;;12.17;6.07;;;;;;;12.23;41.03;94901.41;4937344;28;20295;-73
2023/03/14 10:38:32;;;;;;;11.37;5.50;;;;;;;12.32;40.35;94897.53;4949291;28;20236;-73
2023/03/14 10:40:58;;;;;;;11.43;5.77;;;;;;;12.25;40.30;94884.44;4963433;28;20242;-74
2023/03/14 10:43:26;;;;;;;12.00;5.80;;;;;;;12.49;40.43;94882.88;4916273;28;20237;-73
2023/03/14 10:46:01;;;;;;;11.30;5.83;;;;;;;12.48;40.38;94881.25;4930925;28;20292;-74
2023/03/14 10:48:37;;;;;;;14.00;6.90;;;;;;;12.67;41.02;94865.38;4914993;28;20241;-73
2023/03/14 10:51:04;;;;;;;13.10;5.87;;;;;;;12.61;40.27;94855.72;4939448;28;20258;-73
2023/03/14 10:53:55;;;;;;;10.23;5.20;;;;;;;12.74;40.36;94849.56;4942510;28;20809;-73
2023/03/14 10:56:21;;;;;;;10.57;4.87;;;;;;;13.04;41.43;94839.22;4963102;28;20872;-73
2023/03/14 10:58:49;;;;;;;9.27;4.93;;;;;;;12.94;38.97;94838.91;4967389;28;20264;-73
2023/03/14 11:01:44;;;;;;;8.77;4.70;;;;;;;12.62;40.22;94825.84;4931256;28;20238;-73
2023/03/14 11:04:25;;;;;;;10.17;4.40;;;;;;;13.02;39.26;94826.28;4934652;28;20251;-73
2023/03/14 11:07:06;;;;;;;10.67;4.40;;;;;;;13.26;38.81;94822.84;4947658;28;20248;-75
2023/03/14 11:09:49;;;;;;;10.63;4.67;;;;;;;13.39;39.18;94816.66;4946767;28;20236;-73
2023/03/14 11:12:39;;;;;;;9.57;4.70;;;;;;;13.26;38.30;94812.34;4950786;28;20244;-74
2023/03/14 11:15:27;;;;;;;9.37;4.87;;;;;;;13.57;38.17;94805.31;4948333;28;20237;-73
2023/03/14 11:17:59;;;;;;;9.57;5.20;;;;;;;13.78;38.78;94797.75;4927442;28;20228;-74
2023/03/14 11:20:32;;;;;;;8.40;4.50;;;;;;;13.73;37.90;94794.22;4953226;28;20240;-74
2023/03/14 11:23:18;;;;;;;12.27;5.33;;;;;;;13.82;38.73;94791.06;4967260;28;20254;-74
2023/03/14 11:26:02;;;;;;;8.00;4.50;;;;;;;14.00;37.69;94777.03;4979949;28;20244;-74
2023/03/14 11:28:43;;;;;;;8.57;4.60;;;;;;;13.93;37.20;94769.25;4963317;28;20268;-74
2023/03/14 11:31:27;;;;;;;9.97;4.53;;;;;;;14.15;38.32;94761.63;4943363;28;20599;-73